Aérodrome :
LOGIN :

S'inscrire | Disclaimer

   EN    FR    IT 

 










Légende :    VFR   VFR Marginal   IFR   IFR Intensif   IFR Très Intensif
Visi : 
Plafond : 
>= 8 km
>= 3000ft
5 à 8 km
1000 à 3000 ft
1500m à 5 km
500 à 1000 ft
800 à 1500m
200 à 500 ft
< 800m
< 200 ft
Symboles :   Orages  Brouillard  Fortes neiges  Fortes précipitations  Vent > 20 kt
SIGMETs :   Divers  Orages  Givrage  Turbulence  Onde Orograph.  Cendres Volcan.






- Altitude de l'aérodrome : 200 ft


EBBL - Klein Brogel AB

DERNIER METAR :
  • 240252Z AUTO VRB02KT 1200 BR OVC002/// 01/01 Q1025 AMB

METARs EXPIRÉS :
  • 240225Z AUTO 23004KT 0650 FG OVC002/// 01/00 Q1025 RED
  • 240155Z AUTO 22004KT 0350 FG OVC002/// 01/00 Q1025 RED
  • 240125Z AUTO VRB02KT 0450 FG OVC002/// 01/01 Q1026 RED
  • 240055Z AUTO VRB01KT 0600 FG OVC002/// 01/01 Q1026 RED
  • 240033Z AUTO VRB02KT 0750 BR OVC002/// 01/01 Q1026 RED
  • 232355Z AUTO 15003KT 2100 BR OVC002/// 01/01 Q1026 AMB

TAF TAF EBBL
Valide du 23 à 19h jusqu'au 24 à 07h UTC


231541Z 2319/2407 10005KT 3000 BR SCT006
BECMG 2320/2322 VRB02KT 1500 BR FEW004
BECMG 2400/2402 0500 FZFG BKN002



MET'MAP, la Météo Aéronautique d'un coup d'oeil ! - Copyright ORBIFLY Décembre 2007 - Disclaimer

ORBIFLY MET'MAP TEAM :

Programmation & Développement : Alexandra Zaïnal
Sur une idée originale de : Baudouin d'Aumeries
Assistance à la programmation : Marc-Olivier Méhu
Soutien technique & logistique : Manuel Goepfert

Contact : metmap@orbifly.com




SOURCES & CREDITS :

   NOAA